Time;durP1;ratioP1;P1;durP2;ratioP2;P2;SDS_P1;SDS_P2;PMS_P1;PMS_P2;Temp;Humidity;BMP_temperature;BMP_pressure;BME280_temperature;BME280_humidity;BME280_pressure;Samples;Min_cycle;Max_cycle;Signal;HPM_P1;HPM_P2
2022/03/06 00:02:08;;;;;;;45.70;28.85;;;;;;;4.20;54.72;102171.41;5091264;28;20024;-68
2022/03/06 00:04:34;;;;;;;45.10;29.70;;;;;;;4.05;54.71;102167.25;5075836;28;20035;-68
2022/03/06 00:07:00;;;;;;;49.28;30.42;;;;;;;3.98;55.14;102173.53;5094771;28;20031;-68
2022/03/06 00:09:25;;;;;;;47.08;30.38;;;;;;;3.99;54.84;102175.25;5107023;28;20032;-68
2022/03/06 00:11:52;;;;;;;48.78;30.58;;;;;;;3.92;55.12;102163.94;5105269;28;20032;-68
2022/03/06 00:14:20;;;;;;;45.72;29.50;;;;;;;3.98;55.12;102178.78;5094894;28;20482;-68
2022/03/06 00:16:46;;;;;;;48.60;31.75;;;;;;;3.99;54.92;102175.25;5077675;28;20428;-68
2022/03/06 00:19:12;;;;;;;44.65;30.70;;;;;;;3.78;55.25;102179.91;5100345;28;20367;-68
2022/03/06 00:21:39;;;;;;;50.70;31.55;;;;;;;3.72;55.45;102158.94;5075749;28;20032;-68
2022/03/06 00:24:05;;;;;;;48.30;29.73;;;;;;;3.85;54.94;102180.69;5092450;28;20031;-68
2022/03/06 00:26:33;;;;;;;48.33;30.98;;;;;;;3.70;55.00;102171.25;5106937;28;20452;-68
2022/03/06 00:28:59;;;;;;;45.45;29.40;;;;;;;3.68;55.39;102170.41;5083922;28;20034;-68
2022/03/06 00:31:24;;;;;;;46.40;29.88;;;;;;;3.68;55.51;102183.56;5108284;28;20035;-68
2022/03/06 00:33:51;;;;;;;46.88;29.70;;;;;;;3.49;55.62;102190.81;5104123;28;20584;-68
2022/03/06 00:36:18;;;;;;;48.58;29.90;;;;;;;3.42;55.52;102191.78;5081847;28;20016;-69
2022/03/06 00:38:46;;;;;;;45.92;29.55;;;;;;;3.34;56.09;102186.59;5077215;28;20031;-68
2022/03/06 00:41:13;;;;;;;50.58;30.38;;;;;;;3.32;56.67;102187.50;5091392;28;20024;-68
2022/03/06 00:43:39;;;;;;;47.92;30.38;;;;;;;3.34;56.42;102194.47;5075636;28;20428;-68
2022/03/06 00:46:05;;;;;;;46.90;30.58;;;;;;;3.26;56.73;102196.31;5081454;28;20107;-68
2022/03/06 00:48:30;;;;;;;49.30;29.63;;;;;;;3.26;56.79;102190.19;5101704;28;20029;-68
2022/03/06 00:50:59;;;;;;;45.53;29.25;;;;;;;3.38;56.93;102205.84;5072844;28;20039;-68
2022/03/06 00:53:24;;;;;;;47.13;29.88;;;;;;;3.44;56.53;102212.78;5087412;28;20555;-68
2022/03/06 00:55:51;;;;;;;45.78;29.33;;;;;;;3.42;55.92;102218.94;5092800;28;20035;-68
2022/03/06 00:58:18;;;;;;;46.67;30.38;;;;;;;3.46;56.80;102218.91;5092696;28;20149;-68
2022/03/06 01:00:47;;;;;;;47.90;29.45;;;;;;;3.39;56.37;102213.72;5095477;28;20113;-68
2022/03/06 01:03:18;;;;;;;46.95;29.83;;;;;;;3.46;56.40;102208.38;5103304;28;20048;-68
2022/03/06 01:05:45;;;;;;;45.17;29.20;;;;;;;3.36;56.50;102197.13;5104117;28;20030;-68
2022/03/06 01:08:12;;;;;;;48.05;30.23;;;;;;;3.51;55.85;102207.44;5087577;28;20132;-68
2022/03/06 01:10:39;;;;;;;45.22;29.10;;;;;;;3.44;56.33;102202.25;5092038;28;20023;-68
2022/03/06 01:13:08;;;;;;;43.92;28.92;;;;;;;3.46;56.54;102211.00;5094148;28;20051;-68
2022/03/06 01:15:37;;;;;;;44.17;28.10;;;;;;;3.44;56.11;102213.66;5102166;28;20027;-68
2022/03/06 01:18:06;;;;;;;42.65;28.88;;;;;;;3.53;55.88;102217.94;5101810;28;20455;-68
2022/03/06 01:20:32;;;;;;;42.40;28.55;;;;;;;3.36;55.94;102218.16;5101396;28;20385;-68
2022/03/06 01:22:59;;;;;;;43.47;27.30;;;;;;;3.48;56.15;102215.38;5080328;28;20107;-68
2022/03/06 01:25:25;;;;;;;43.92;28.10;;;;;;;3.30;56.00;102213.81;5056003;28;20035;-68
2022/03/06 01:27:50;;;;;;;43.95;29.00;;;;;;;3.36;56.38;102223.41;5063069;28;20047;-68
2022/03/06 01:30:16;;;;;;;46.95;30.02;;;;;;;3.30;56.27;102219.09;5107542;28;20106;-68
2022/03/06 01:32:42;;;;;;;48.65;29.27;;;;;;;3.26;56.56;102219.13;5092867;28;20024;-68
2022/03/06 01:35:09;;;;;;;44.92;29.05;;;;;;;3.22;56.76;102225.31;5110732;28;20027;-68
2022/03/06 01:37:34;;;;;;;48.10;30.02;;;;;;;3.27;56.57;102232.25;5095025;28;20486;-68
2022/03/06 01:39:59;;;;;;;45.83;29.08;;;;;;;3.17;56.62;102226.19;5101777;28;20064;-68
2022/03/06 01:42:27;;;;;;;45.78;29.08;;;;;;;3.17;56.55;102220.94;5109166;28;20028;-68
2022/03/06 01:44:52;;;;;;;46.78;29.73;;;;;;;3.27;56.51;102229.63;5094955;28;20113;-68
2022/03/06 01:47:55;;;;;;;50.45;29.67;;;;;;;3.32;55.91;102233.06;5078594;28;20464;-68
2022/03/06 01:50:29;;;;;;;47.78;29.52;;;;;;;3.24;56.40;102229.66;4999099;28;20034;-68
2022/03/06 01:52:58;;;;;;;47.35;29.50;;;;;;;3.19;56.50;102236.72;5064886;28;20127;-68
2022/03/06 01:55:26;;;;;;;48.88;28.80;;;;;;;3.22;56.46;102241.94;5075090;28;20449;-68
2022/03/06 01:57:57;;;;;;;48.92;29.55;;;;;;;3.04;56.66;102226.38;5085100;28;20063;-68
2022/03/06 02:00:26;;;;;;;47.63;29.65;;;;;;;3.10;56.70;102236.81;5089003;28;20173;-68
2022/03/06 02:02:52;;;;;;;47.05;29.73;;;;;;;3.07;56.62;102240.34;5083911;28;20027;-68
2022/03/06 02:05:18;;;;;;;47.10;28.98;;;;;;;3.08;56.42;102234.19;5076019;28;20033;-68
2022/03/06 02:07:44;;;;;;;46.92;28.90;;;;;;;3.01;57.22;102231.66;5081186;28;20028;-68
2022/03/06 02:10:10;;;;;;;48.15;29.40;;;;;;;2.94;56.90;102229.09;5087985;28;20035;-68
2022/03/06 02:12:36;;;;;;;43.22;28.35;;;;;;;3.02;56.90;102241.25;5093790;28;20015;-68
2022/03/06 02:15:06;;;;;;;43.25;29.08;;;;;;;2.89;56.80;102240.50;5091984;28;20024;-68
2022/03/06 02:17:31;;;;;;;47.20;30.00;;;;;;;2.94;57.19;102242.22;5084258;28;20535;-68
2022/03/06 02:19:59;;;;;;;46.55;29.42;;;;;;;2.83;57.13;102232.69;5078249;28;20169;-68
2022/03/06 02:22:28;;;;;;;46.28;29.33;;;;;;;2.63;57.65;102238.09;5079815;28;20031;-68
2022/03/06 02:24:55;;;;;;;46.20;28.95;;;;;;;2.38;57.95;102226.88;5080929;28;20547;-68
2022/03/06 02:27:22;;;;;;;45.28;29.77;;;;;;;2.59;58.25;102238.97;5081729;28;20024;-68
2022/03/06 02:29:47;;;;;;;46.00;28.80;;;;;;;2.43;58.50;102251.34;5086793;28;20072;-68
2022/03/06 02:32:16;;;;;;;45.25;29.30;;;;;;;2.47;58.18;102240.84;5085922;28;20574;-68
2022/03/06 02:34:43;;;;;;;46.90;29.08;;;;;;;2.43;58.82;102251.34;5078985;28;20028;-68
2022/03/06 02:37:09;;;;;;;44.75;28.65;;;;;;;2.39;58.69;102247.03;5084037;28;20065;-68
2022/03/06 02:39:35;;;;;;;45.60;29.88;;;;;;;2.52;58.87;102251.28;5092266;28;20070;-68
2022/03/06 02:42:03;;;;;;;44.30;29.13;;;;;;;2.56;58.77;102253.03;5076180;28;20024;-68
2022/03/06 02:44:29;;;;;;;47.88;28.70;;;;;;;2.55;58.80;102253.03;5081789;28;20024;-68
2022/03/06 02:46:55;;;;;;;43.40;28.85;;;;;;;2.54;58.61;102259.19;5081147;28;20044;-68
2022/03/06 02:49:21;;;;;;;42.88;27.80;;;;;;;2.48;58.33;102260.09;5075436;28;20024;-68
2022/03/06 02:51:47;;;;;;;44.22;28.02;;;;;;;2.43;58.57;102265.34;5074282;28;20039;-68
2022/03/06 02:54:17;;;;;;;46.05;28.48;;;;;;;2.36;58.94;102254.91;5081727;28;20023;-68
2022/03/06 02:56:45;;;;;;;41.25;27.73;;;;;;;2.35;58.74;102267.16;5102412;28;20491;-68
2022/03/06 02:59:13;;;;;;;41.03;27.30;;;;;;;2.34;59.30;102260.16;5079165;28;20023;-68
2022/03/06 03:01:41;;;;;;;41.45;27.65;;;;;;;2.32;59.81;102254.03;5077034;28;20031;-68
2022/03/06 03:04:08;;;;;;;42.35;28.13;;;;;;;2.31;60.01;102265.44;5082400;28;20039;-68
2022/03/06 03:06:34;;;;;;;42.35;26.83;;;;;;;2.32;59.76;102261.91;5109899;28;20531;-68
2022/03/06 03:08:59;;;;;;;44.47;26.95;;;;;;;2.36;59.18;102263.66;5094773;28;20031;-68
2022/03/06 03:11:25;;;;;;;40.30;26.42;;;;;;;2.23;59.45;102259.34;5098274;28;20502;-67
2022/03/06 03:13:50;;;;;;;41.92;26.88;;;;;;;2.23;59.75;102268.09;5088221;28;20120;-67
2022/03/06 03:16:16;;;;;;;38.40;26.63;;;;;;;2.28;59.94;102271.56;5078554;28;20131;-68
2022/03/06 03:18:41;;;;;;;43.78;27.13;;;;;;;2.24;60.42;102266.38;5110002;28;20032;-67
2022/03/06 03:21:07;;;;;;;42.72;27.00;;;;;;;2.33;60.08;102263.69;5076789;28;20016;-68
2022/03/06 03:23:32;;;;;;;42.45;27.10;;;;;;;2.24;60.31;102261.97;5085681;28;20032;-67
2022/03/06 03:25:58;;;;;;;41.67;27.58;;;;;;;2.19;60.78;102257.63;5077667;28;20051;-68
2022/03/06 03:28:23;;;;;;;41.97;28.00;;;;;;;2.00;61.41;102272.59;5110019;28;20023;-67
2022/03/06 03:30:49;;;;;;;42.38;26.20;;;;;;;1.95;61.72;102267.38;5112173;28;20035;-67
2022/03/06 03:33:15;;;;;;;43.33;27.90;;;;;;;1.99;61.56;102265.59;5104164;28;20390;-67
2022/03/06 03:35:40;;;;;;;39.72;27.48;;;;;;;1.94;61.93;102259.50;5094412;28;20031;-67
2022/03/06 03:38:07;;;;;;;39.60;26.60;;;;;;;2.01;61.41;102258.59;5086889;28;20031;-67
2022/03/06 03:40:35;;;;;;;39.22;27.33;;;;;;;1.96;61.93;102269.09;5098238;28;21336;-68
2022/03/06 03:43:00;;;;;;;43.67;27.25;;;;;;;1.96;62.01;102273.50;5082203;28;20561;-67
2022/03/06 03:45:26;;;;;;;40.22;26.85;;;;;;;1.97;62.01;102256.84;5107524;28;20169;-68
2022/03/06 03:47:51;;;;;;;41.03;26.85;;;;;;;2.01;61.57;102269.09;5088582;28;20371;-68
2022/03/06 03:50:17;;;;;;;40.00;27.60;;;;;;;1.89;61.53;102256.91;5073885;28;20055;-68
2022/03/06 03:52:45;;;;;;;41.40;27.02;;;;;;;1.87;61.96;102260.41;5077646;28;20047;-67
2022/03/06 03:55:11;;;;;;;39.22;26.42;;;;;;;1.87;61.55;102273.53;5105678;28;20031;-68
2022/03/06 03:57:37;;;;;;;45.42;27.55;;;;;;;1.87;62.22;102270.91;5082462;28;20073;-67
2022/03/06 04:00:04;;;;;;;41.60;26.85;;;;;;;1.80;62.28;102264.81;5098953;28;20032;-67
2022/03/06 04:02:30;;;;;;;40.45;26.48;;;;;;;1.79;62.00;102277.06;5091995;28;20035;-67
2022/03/06 04:04:58;;;;;;;42.42;27.65;;;;;;;1.74;62.65;102281.44;5099952;28;20567;-67
2022/03/06 04:07:24;;;;;;;40.75;27.00;;;;;;;1.72;62.21;102277.94;5069282;28;21418;-67
2022/03/06 04:09:50;;;;;;;41.35;26.95;;;;;;;1.56;62.90;102277.13;5111868;28;20164;-67
2022/03/06 04:12:15;;;;;;;42.67;28.42;;;;;;;1.55;62.67;102280.63;5086370;28;20043;-67
2022/03/06 04:14:41;;;;;;;41.63;27.00;;;;;;;1.54;62.86;102275.38;5111603;28;20036;-68
2022/03/06 04:17:07;;;;;;;44.05;28.45;;;;;;;1.61;63.13;102281.47;5067489;28;20031;-67
2022/03/06 04:19:32;;;;;;;45.30;27.88;;;;;;;1.41;62.95;102292.88;5109636;28;20687;-68
2022/03/06 04:21:58;;;;;;;38.90;25.63;;;;;;;1.50;63.25;102292.88;5061395;28;20028;-67
2022/03/06 04:24:24;;;;;;;40.67;28.00;;;;;;;1.52;62.97;102300.72;5103556;28;20085;-68
2022/03/06 04:26:49;;;;;;;39.10;27.55;;;;;;;1.43;63.33;102306.00;5081549;28;20411;-67
2022/03/06 04:29:15;;;;;;;40.60;26.23;;;;;;;1.35;63.45;102308.63;5062776;28;20118;-67
2022/03/06 04:31:41;;;;;;;39.95;27.67;;;;;;;1.35;63.69;102306.91;5092678;28;20114;-67
2022/03/06 04:34:06;;;;;;;42.45;26.25;;;;;;;1.28;63.92;102306.88;5076711;28;20090;-68
2022/03/06 04:36:32;;;;;;;39.50;26.05;;;;;;;1.31;63.83;102306.88;5075598;28;20031;-67
2022/03/06 04:38:58;;;;;;;43.85;26.75;;;;;;;1.30;63.66;102300.78;5108249;28;20027;-67
2022/03/06 04:41:23;;;;;;;43.15;26.45;;;;;;;1.23;64.30;102312.13;5082561;28;20043;-67
2022/03/06 04:43:50;;;;;;;40.67;27.08;;;;;;;1.27;64.31;102315.63;5076030;28;20052;-68
2022/03/06 04:46:16;;;;;;;43.80;27.55;;;;;;;1.30;64.06;102313.00;5070597;28;20446;-68
2022/03/06 04:48:44;;;;;;;39.97;25.73;;;;;;;1.35;64.09;102313.84;5081429;28;20114;-67
2022/03/06 04:51:09;;;;;;;41.22;26.45;;;;;;;1.20;64.01;102314.75;5075508;28;20186;-67
2022/03/06 04:53:36;;;;;;;37.83;26.73;;;;;;;1.24;63.66;102319.13;5100179;28;20579;-67
2022/03/06 04:56:02;;;;;;;43.13;27.15;;;;;;;1.26;63.85;102319.97;5074207;28;20034;-68
2022/03/06 04:58:28;;;;;;;39.60;25.77;;;;;;;1.24;63.83;102332.22;5097850;28;20440;-67
2022/03/06 05:00:54;;;;;;;38.88;25.90;;;;;;;1.26;63.75;102335.69;5082750;28;20035;-68
2022/03/06 05:03:22;;;;;;;36.35;25.42;;;;;;;1.23;63.82;102334.84;5103370;28;20505;-67
2022/03/06 05:05:49;;;;;;;42.97;26.93;;;;;;;1.07;64.68;102337.47;5073326;28;20040;-67
2022/03/06 05:08:14;;;;;;;38.20;25.83;;;;;;;1.09;64.71;102345.34;5092387;28;20034;-67
2022/03/06 05:10:40;;;;;;;38.47;26.17;;;;;;;1.09;64.17;102347.97;5110573;28;20029;-67
2022/03/06 05:13:09;;;;;;;35.80;24.83;;;;;;;1.08;64.10;102339.19;5100108;28;20089;-67
2022/03/06 05:15:34;;;;;;;36.47;24.53;;;;;;;1.07;64.89;102337.47;5064940;28;20036;-67
2022/03/06 05:18:02;;;;;;;39.83;25.60;;;;;;;1.05;64.29;102349.69;5093590;28;20043;-67
2022/03/06 05:20:29;;;;;;;37.23;26.37;;;;;;;0.98;64.71;102353.19;5090865;28;20028;-67
2022/03/06 05:22:54;;;;;;;37.47;25.90;;;;;;;0.95;64.41;102349.69;5104875;28;20035;-67
2022/03/06 05:25:20;;;;;;;38.28;25.77;;;;;;;0.96;64.62;102352.28;5096271;28;20054;-68
2022/03/06 05:27:45;;;;;;;35.07;25.70;;;;;;;0.98;64.36;102353.19;5074377;28;20032;-67
2022/03/06 05:30:12;;;;;;;39.53;25.87;;;;;;;1.02;64.49;102359.28;5084101;28;20043;-67
2022/03/06 05:32:40;;;;;;;35.10;25.20;;;;;;;0.95;65.08;102363.66;5102663;28;20020;-67
2022/03/06 05:35:06;;;;;;;38.83;25.13;;;;;;;0.87;65.23;102357.53;5092932;28;20032;-67
2022/03/06 05:37:32;;;;;;;38.33;25.97;;;;;;;0.82;64.83;102364.50;5094535;28;20028;-67
2022/03/06 05:39:58;;;;;;;35.47;24.87;;;;;;;0.87;65.26;102366.25;5092861;28;20034;-67
2022/03/06 05:42:24;;;;;;;37.73;26.53;;;;;;;0.79;65.33;102354.00;5092592;28;20032;-67
2022/03/06 05:44:49;;;;;;;34.70;24.80;;;;;;;0.84;64.75;102365.38;5092272;28;20498;-67
2022/03/06 05:47:15;;;;;;;35.67;24.83;;;;;;;0.89;64.67;102368.88;5093055;28;20032;-67
2022/03/06 05:49:41;;;;;;;38.57;26.17;;;;;;;0.88;65.46;102373.25;5092952;28;20077;-67
2022/03/06 05:52:06;;;;;;;34.00;24.97;;;;;;;0.85;65.19;102367.13;5092947;28;20035;-67
2022/03/06 05:54:32;;;;;;;37.13;25.23;;;;;;;0.91;64.74;102380.22;5073008;28;20062;-67
2022/03/06 05:56:57;;;;;;;36.07;25.37;;;;;;;0.89;65.10;102371.50;5081495;28;20463;-67
2022/03/06 05:59:23;;;;;;;34.13;25.40;;;;;;;0.86;64.74;102377.63;5102546;28;20056;-67
2022/03/06 06:01:51;;;;;;;32.13;23.83;;;;;;;0.85;64.52;102382.84;5104268;28;20031;-67
2022/03/06 06:04:18;;;;;;;33.77;25.30;;;;;;;0.88;65.18;102391.59;5094685;28;20440;-67
2022/03/06 06:06:43;;;;;;;35.80;24.30;;;;;;;0.81;64.99;102387.19;5077464;28;20036;-67
2022/03/06 06:09:09;;;;;;;32.63;24.13;;;;;;;0.79;64.94;102388.94;5102304;28;20028;-67
2022/03/06 06:11:35;;;;;;;32.80;24.33;;;;;;;0.84;64.79;102399.44;5092680;28;20039;-67
2022/03/06 06:14:03;;;;;;;35.83;25.03;;;;;;;0.84;65.20;102404.66;5090008;28;20031;-67
2022/03/06 06:16:30;;;;;;;32.23;24.90;;;;;;;0.81;64.33;102408.16;5092002;28;20031;-67
2022/03/06 06:18:55;;;;;;;34.63;25.60;;;;;;;0.80;64.71;102408.16;5091126;28;20036;-67
2022/03/06 06:21:21;;;;;;;38.63;26.40;;;;;;;0.76;64.42;102399.41;5076153;28;20042;-67
2022/03/06 06:23:49;;;;;;;34.80;24.27;;;;;;;0.80;65.11;102411.66;5086128;28;20047;-67
2022/03/06 06:26:15;;;;;;;34.83;24.57;;;;;;;0.86;65.13;102421.25;5092391;28;20482;-67
2022/03/06 06:28:40;;;;;;;33.23;25.60;;;;;;;0.82;65.37;102409.00;5107902;28;20040;-67
2022/03/06 06:31:07;;;;;;;36.77;25.43;;;;;;;0.77;65.08;102410.78;5089279;28;20036;-67
2022/03/06 06:33:34;;;;;;;33.10;24.93;;;;;;;0.83;64.16;102418.63;5097979;28;20024;-67
2022/03/06 06:36:00;;;;;;;31.03;23.97;;;;;;;0.91;65.10;102422.13;5095942;28;20110;-67
2022/03/06 06:38:25;;;;;;;34.43;25.27;;;;;;;0.87;64.69;102418.63;5077875;28;20054;-67
2022/03/06 06:40:51;;;;;;;31.83;25.27;;;;;;;0.86;64.85;102416.91;5094815;28;20123;-67
2022/03/06 06:43:18;;;;;;;30.13;23.87;;;;;;;0.86;64.47;102427.38;5095148;28;20035;-67
2022/03/06 06:45:44;;;;;;;33.53;25.07;;;;;;;0.90;64.09;102428.25;5106939;28;20028;-67
2022/03/06 06:48:10;;;;;;;32.90;24.27;;;;;;;0.82;64.73;102428.22;5099941;28;20039;-67
2022/03/06 06:50:35;;;;;;;33.80;24.87;;;;;;;0.80;64.65;102422.13;5088585;28;20035;-67
2022/03/06 06:53:01;;;;;;;30.70;24.10;;;;;;;0.95;64.46;102429.16;5104543;28;20043;-67
2022/03/06 06:55:26;;;;;;;33.27;24.67;;;;;;;0.96;64.59;102425.63;5085477;28;20437;-67
2022/03/06 06:57:52;;;;;;;34.53;25.23;;;;;;;0.96;64.34;102430.00;5103273;28;20085;-67
2022/03/06 07:00:20;;;;;;;31.17;24.27;;;;;;;1.06;64.00;102444.88;5064178;28;20039;-67
2022/03/06 07:02:46;;;;;;;33.37;24.40;;;;;;;1.08;64.31;102440.50;5105524;28;20034;-67
2022/03/06 07:05:12;;;;;;;32.73;25.33;;;;;;;1.07;64.50;102438.78;5103284;28;20997;-67
2022/03/06 07:07:37;;;;;;;38.33;24.67;;;;;;;1.08;64.13;102437.88;5102768;28;20118;-67
2022/03/06 07:10:04;;;;;;;32.67;24.40;;;;;;;1.29;64.52;102450.16;5101788;28;20044;-67
2022/03/06 07:12:29;;;;;;;32.90;25.90;;;;;;;1.36;63.92;102452.78;5102429;28;20020;-67
2022/03/06 07:14:57;;;;;;;31.13;24.23;;;;;;;1.39;63.74;102454.53;5084096;28;20045;-67
2022/03/06 07:17:22;;;;;;;32.28;25.17;;;;;;;1.42;63.61;102459.78;5102595;28;20020;-67
2022/03/06 07:19:50;;;;;;;31.83;24.15;;;;;;;1.40;63.51;102452.78;5088841;28;20046;-67
2022/03/06 07:22:15;;;;;;;33.47;25.60;;;;;;;1.45;63.20;102458.91;5085381;28;20051;-67
2022/03/06 07:24:41;;;;;;;33.90;23.20;;;;;;;1.36;63.55;102454.53;5072112;28;20032;-67
2022/03/06 07:27:06;;;;;;;32.15;25.05;;;;;;;1.52;63.53;102456.28;5075044;28;20070;-67
2022/03/06 07:29:32;;;;;;;33.07;25.00;;;;;;;1.46;63.30;102452.78;5094853;28;20042;-67
2022/03/06 07:32:00;;;;;;;30.30;23.93;;;;;;;1.50;63.11;102455.44;5095586;28;20108;-67
2022/03/06 07:34:26;;;;;;;32.85;24.65;;;;;;;1.52;62.57;102469.41;5109434;28;20047;-67
2022/03/06 07:36:52;;;;;;;30.08;24.02;;;;;;;1.57;62.82;102466.78;5082398;28;20059;-67
2022/03/06 07:39:17;;;;;;;31.67;24.80;;;;;;;1.55;62.44;102444.94;5069777;28;20058;-67
2022/03/06 07:41:42;;;;;;;30.92;23.70;;;;;;;1.86;62.03;102473.78;5104101;28;20028;-67
2022/03/06 07:44:08;;;;;;;30.52;25.00;;;;;;;1.94;62.75;102488.66;5100112;28;20837;-67
2022/03/06 07:46:34;;;;;;;30.55;24.67;;;;;;;1.93;61.92;102492.13;5097855;28;20039;-67
2022/03/06 07:48:59;;;;;;;32.10;24.60;;;;;;;2.06;61.92;102482.50;5067977;28;20032;-67
2022/03/06 07:51:25;;;;;;;33.38;24.02;;;;;;;2.15;61.41;102495.63;5089941;28;20126;-67
2022/03/06 07:53:50;;;;;;;33.38;24.27;;;;;;;2.19;61.78;102491.22;5062389;28;20079;-67
2022/03/06 07:56:18;;;;;;;32.50;23.77;;;;;;;2.24;61.16;102495.59;5056572;28;20556;-67
2022/03/06 07:58:46;;;;;;;29.70;23.13;;;;;;;2.25;60.67;102497.34;5073455;28;20395;-67
2022/03/06 08:01:12;;;;;;;30.58;23.63;;;;;;;2.30;61.11;102504.34;5080798;28;20028;-67
2022/03/06 08:03:37;;;;;;;29.67;24.42;;;;;;;2.11;60.83;102470.22;5106134;28;20036;-67
2022/03/06 08:06:03;;;;;;;32.00;24.05;;;;;;;2.36;61.25;102512.22;5079555;28;20035;-67
2022/03/06 08:08:29;;;;;;;28.73;23.40;;;;;;;2.36;60.65;102518.31;5098910;28;20193;-67
2022/03/06 08:10:55;;;;;;;31.52;24.23;;;;;;;2.46;60.48;102521.78;5085150;28;20036;-67
2022/03/06 08:13:20;;;;;;;29.98;22.83;;;;;;;2.56;60.26;102520.00;5093914;28;20024;-67
2022/03/06 08:15:46;;;;;;;31.70;24.38;;;;;;;2.73;59.90;102524.31;5090166;28;20041;-67
2022/03/06 08:18:11;;;;;;;31.00;22.98;;;;;;;2.87;59.36;102515.53;5086781;28;20119;-67
2022/03/06 08:20:37;;;;;;;29.08;23.13;;;;;;;2.98;59.70;102526.00;5073114;28;20028;-67
2022/03/06 08:23:03;;;;;;;30.13;22.70;;;;;;;3.01;59.35;102521.59;5080345;28;20043;-67
2022/03/06 08:25:28;;;;;;;28.88;23.08;;;;;;;3.19;58.90;102525.91;5073738;28;20046;-67
2022/03/06 08:27:54;;;;;;;31.88;23.17;;;;;;;3.37;58.53;102525.78;5093683;28;20490;-67
2022/03/06 08:30:19;;;;;;;27.70;22.52;;;;;;;3.45;58.12;102530.16;5087692;28;20478;-67
2022/03/06 08:32:45;;;;;;;30.02;22.70;;;;;;;3.63;57.74;102532.66;5109626;28;20106;-67
2022/03/06 08:35:10;;;;;;;29.75;22.85;;;;;;;3.70;57.18;102534.34;5073008;28;20028;-67
2022/03/06 08:37:36;;;;;;;26.70;21.98;;;;;;;3.82;56.63;102528.09;5073670;28;20089;-67
2022/03/06 08:40:05;;;;;;;28.00;21.67;;;;;;;3.85;56.76;102531.59;5072798;28;20038;-67
2022/03/06 08:42:31;;;;;;;31.27;21.77;;;;;;;3.90;56.41;102539.44;5093556;28;20050;-67
2022/03/06 08:44:57;;;;;;;27.17;21.05;;;;;;;3.99;56.00;102544.63;5072758;28;20055;-68
2022/03/06 08:47:24;;;;;;;29.70;21.98;;;;;;;4.12;56.22;102552.41;5091442;28;20027;-67
2022/03/06 08:49:50;;;;;;;25.58;21.73;;;;;;;4.23;56.42;102535.63;5076640;28;20098;-67
2022/03/06 08:52:15;;;;;;;31.23;21.17;;;;;;;4.35;56.18;102545.19;5074116;28;20554;-67
2022/03/06 08:54:41;;;;;;;28.75;22.27;;;;;;;4.40;55.56;102540.75;5074757;28;20081;-67
2022/03/06 08:57:09;;;;;;;28.23;22.08;;;;;;;4.43;55.62;102534.59;5053394;28;20433;-67
2022/03/06 08:59:37;;;;;;;27.92;21.17;;;;;;;4.54;54.68;102535.34;5070780;28;20031;-67
2022/03/06 09:02:03;;;;;;;27.27;21.10;;;;;;;4.58;54.36;102544.97;5078176;28;20029;-67
2022/03/06 09:04:30;;;;;;;24.75;20.60;;;;;;;4.61;54.52;102541.41;5080176;28;20472;-67
2022/03/06 09:06:56;;;;;;;26.08;20.50;;;;;;;4.66;54.21;102548.38;5075164;28;20455;-67
2022/03/06 09:09:22;;;;;;;26.65;20.95;;;;;;;4.82;54.28;102546.44;5060623;28;20071;-68
2022/03/06 09:11:47;;;;;;;25.85;20.05;;;;;;;4.87;54.57;102551.66;5073196;28;20056;-67
2022/03/06 09:14:13;;;;;;;26.60;20.58;;;;;;;4.97;53.47;102556.81;5078564;28;20024;-67
2022/03/06 09:16:38;;;;;;;25.75;19.83;;;;;;;5.12;53.42;102550.47;5077408;28;20040;-67
2022/03/06 09:19:03;;;;;;;22.27;19.70;;;;;;;5.31;53.08;102551.09;5075617;28;20031;-67
2022/03/06 09:21:31;;;;;;;25.17;21.00;;;;;;;5.43;53.96;102547.41;5066896;28;20029;-67
2022/03/06 09:23:57;;;;;;;24.83;20.85;;;;;;;5.52;53.27;102549.91;5075046;28;20051;-67
2022/03/06 09:26:23;;;;;;;25.05;20.23;;;;;;;5.72;52.27;102548.75;5078975;28;20071;-67
2022/03/06 09:28:49;;;;;;;24.90;20.05;;;;;;;5.76;51.96;102542.53;5080060;28;20495;-67
2022/03/06 09:31:17;;;;;;;22.25;19.77;;;;;;;5.94;52.37;102546.66;5083135;28;20474;-67
2022/03/06 09:33:43;;;;;;;23.70;19.57;;;;;;;6.18;50.71;102542.75;5086740;28;20114;-67
2022/03/06 09:36:08;;;;;;;25.00;20.55;;;;;;;6.34;51.46;102546.88;5077532;28;20103;-68
2022/03/06 09:38:36;;;;;;;22.27;19.45;;;;;;;6.52;49.58;102549.16;5070436;28;20476;-67
2022/03/06 09:41:04;;;;;;;23.20;18.65;;;;;;;6.53;49.43;102545.66;5070825;28;20077;-67
2022/03/06 09:43:30;;;;;;;23.08;18.50;;;;;;;6.77;49.84;102549.59;5068916;28;20055;-67
2022/03/06 09:46:04;;;;;;;23.00;18.70;;;;;;;6.88;48.98;102545.84;5084845;28;20052;-68
2022/03/06 09:48:30;;;;;;;25.10;18.80;;;;;;;7.11;48.66;102540.06;5072734;28;20070;-68
2022/03/06 09:50:56;;;;;;;20.38;17.85;;;;;;;7.27;48.35;102542.38;5068859;28;20033;-68
2022/03/06 09:53:23;;;;;;;22.13;18.38;;;;;;;7.59;47.56;102547.81;5093961;28;20466;-68
2022/03/06 09:55:49;;;;;;;22.30;18.77;;;;;;;7.70;46.62;102540.50;5101213;28;20028;-68
2022/03/06 09:58:14;;;;;;;24.67;18.75;;;;;;;7.83;46.97;102543.75;5090471;28;20043;-67
2022/03/06 10:00:41;;;;;;;22.98;18.05;;;;;;;7.82;46.07;102550.78;5092810;28;20031;-67
2022/03/06 10:03:07;;;;;;;25.15;18.58;;;;;;;7.87;45.93;102543.63;5095367;28;20024;-67
2022/03/06 10:05:38;;;;;;;21.65;18.02;;;;;;;7.90;46.52;102535.59;5106277;28;20391;-68
2022/03/06 10:08:17;;;;;;;21.60;18.08;;;;;;;7.94;46.60;102536.38;5087999;28;20024;-68
2022/03/06 10:10:43;;;;;;;19.90;17.70;;;;;;;8.00;46.00;102545.97;5080122;28;20028;-68
2022/03/06 10:13:25;;;;;;;21.70;18.25;;;;;;;8.26;46.25;102538.22;5108031;28;20382;-68
2022/03/06 10:15:59;;;;;;;20.63;17.15;;;;;;;8.31;45.79;102535.44;5081570;28;20028;-68
2022/03/06 10:18:24;;;;;;;20.80;17.13;;;;;;;8.37;46.09;102544.09;5106811;28;20023;-68
2022/03/06 10:20:50;;;;;;;20.92;16.77;;;;;;;8.66;45.24;102550.44;5103625;28;20398;-68
2022/03/06 10:23:28;;;;;;;18.40;16.55;;;;;;;8.85;44.69;102545.47;5093758;28;20478;-68
2022/03/06 10:26:04;;;;;;;18.90;16.20;;;;;;;9.00;44.02;102547.72;5099150;28;20028;-68
2022/03/06 10:28:30;;;;;;;21.10;15.80;;;;;;;9.18;43.47;102548.09;5105978;28;20023;-68
2022/03/06 10:31:04;;;;;;;18.23;14.85;;;;;;;9.33;43.23;102534.34;5085468;28;20092;-68
2022/03/06 10:33:29;;;;;;;20.85;16.67;;;;;;;9.55;42.99;102547.81;5089015;28;20371;-68
2022/03/06 10:35:58;;;;;;;20.98;16.30;;;;;;;9.53;42.41;102545.22;5101623;28;20074;-68
2022/03/06 10:38:31;;;;;;;17.75;15.95;;;;;;;9.47;42.85;102540.09;5104317;28;20036;-68
2022/03/06 10:41:01;;;;;;;18.13;15.55;;;;;;;9.64;41.93;102554.63;5096376;28;20097;-68
2022/03/06 10:43:30;;;;;;;19.65;15.40;;;;;;;9.67;41.98;102550.06;5099532;28;20107;-68
2022/03/06 10:46:14;;;;;;;18.45;15.00;;;;;;;9.70;41.94;102557.09;5100332;28;20406;-69
2022/03/06 10:48:42;;;;;;;20.65;15.02;;;;;;;10.16;41.75;102547.59;5103617;28;20024;-69
2022/03/06 10:51:10;;;;;;;15.80;14.02;;;;;;;10.38;39.94;102529.13;5085283;28;20055;-69
2022/03/06 10:53:37;;;;;;;16.15;13.73;;;;;;;10.62;39.35;102544.25;5098938;28;20042;-69
2022/03/06 10:56:07;;;;;;;19.00;14.18;;;;;;;10.73;39.71;102541.19;5102833;28;20474;-68
2022/03/06 10:58:35;;;;;;;;;;;;;;;11.05;39.47;102545.31;5107616;28;20020;-69
2022/03/06 11:01:02;;;;;;;18.23;14.07;;;;;;;11.10;39.05;102535.34;5084621;28;19912;-69
2022/03/06 11:03:28;;;;;;;17.40;14.20;;;;;;;11.51;37.41;102548.00;5103464;28;20048;-69
2022/03/06 11:05:54;;;;;;;15.82;14.13;;;;;;;11.72;37.34;102547.13;5110454;28;20454;-69
2022/03/06 11:08:21;;;;;;;16.15;13.77;;;;;;;11.83;35.56;102544.03;5106912;28;20052;-69
2022/03/06 11:10:47;;;;;;;15.18;13.25;;;;;;;12.08;34.14;102543.91;5095434;28;20031;-68
2022/03/06 11:13:14;;;;;;;14.95;11.88;;;;;;;12.16;33.68;102548.94;5107160;28;20028;-68
2022/03/06 11:15:41;;;;;;;14.73;11.88;;;;;;;12.54;33.59;102536.59;5093667;28;20455;-69